Terminal Aerodrome Forecast
Issued by NWS

Home | Current Version | Previous Version | Graphics & Text | Print | Product List | Glossary On
Versions: 1 2 3 4 5 6 7 8 9 10 11 12 13 14 15 16 17 18 19 20 21 22 23 24 25 26 27 28 29
000
FTUS45 KGGW 242300
TAFGDV
TAF
KGDV 242326Z 2500/2524 28019KT P6SM SCT015 BKN025 OVC050
      TEMPO 2500/2503 5SM -SHRA OVC020
     FM250300 29019KT P6SM VCSH OVC020
      TEMPO 2503/2506 6SM -SHRA OVC015
     FM251800 31011KT P6SM SCT015 OVC040
      AMD LTD TO CLD VIS AND WIND=

USA.gov is the U.S. government's official web portal to all federal, state and local government web resources and services.